Time;durP1;ratioP1;P1;durP2;ratioP2;P2;SDS_P1;SDS_P2;PMS_P1;PMS_P2;Temp;Humidity;BMP_temperature;BMP_pressure;BME280_temperature;BME280_humidity;BME280_pressure;Samples;Min_cycle;Max_cycle;Signal;HPM_P1;HPM_P2
2022/01/22 00:00:10;;;;;;;;;;;2.90;99.90;;;;;;5128425;27;20492;-70
2022/01/22 00:02:36;;;;;;;;;;;2.90;99.90;;;;;;5124303;27;19919;-70
2022/01/22 00:05:05;;;;;;;;;;;3.00;99.90;;;;;;5120468;28;20403;-72
2022/01/22 00:07:45;;;;;;;;;;;2.90;99.90;;;;;;5126143;27;19908;-71
2022/01/22 00:10:37;;;;;;;;;;;2.80;99.90;;;;;;5126568;27;19942;-71
2022/01/22 00:15:45;;;;;;;;;;;2.80;99.90;;;;;;5126308;28;20066;-70
2022/01/22 00:18:11;;;;;;;;;;;2.90;99.90;;;;;;5126053;27;20258;-71
2022/01/22 00:20:37;;;;;;;;;;;2.90;99.90;;;;;;5110525;28;19912;-70
2022/01/22 00:23:06;;;;;;;;;;;3.00;99.90;;;;;;5114681;28;19915;-71
2022/01/22 00:25:32;;;;;;;;;;;3.00;99.90;;;;;;5122113;28;20331;-71
2022/01/22 00:27:57;;;;;;;;;;;2.80;99.90;;;;;;5129476;28;19956;-71
2022/01/22 00:30:25;;;;;;;;;;;2.90;99.90;;;;;;5126771;28;20006;-71
2022/01/22 00:32:51;;;;;;;;;;;3.00;99.90;;;;;;5128995;28;21698;-70
2022/01/22 00:35:18;;;;;;;;;;;3.00;99.90;;;;;;5124839;27;20321;-70
2022/01/22 00:37:44;;;;;;;;;;;3.00;99.90;;;;;;5127605;27;19918;-70
2022/01/22 00:40:10;;;;;;;;;;;3.00;99.90;;;;;;5126440;27;20415;-72
2022/01/22 00:42:37;;;;;;;;;;;3.10;99.90;;;;;;5125555;27;19998;-70
2022/01/22 00:45:03;;;;;;;;;;;3.20;99.90;;;;;;5123871;27;19916;-70
2022/01/22 00:47:28;;;;;;;;;;;3.20;99.90;;;;;;5121497;27;19924;-71
2022/01/22 00:49:54;;;;;;;;;;;3.20;99.90;;;;;;5124210;27;19926;-71
2022/01/22 00:52:20;;;;;;;;;;;3.20;99.90;;;;;;5129879;27;19969;-71
2022/01/22 00:54:45;;;;;;;;;;;3.30;99.90;;;;;;5128838;27;19911;-71
2022/01/22 00:57:11;;;;;;;;;;;3.30;99.90;;;;;;5127416;27;19918;-71
2022/01/22 00:59:37;;;;;;;;;;;3.30;99.90;;;;;;5132133;27;19912;-70
2022/01/22 01:02:03;;;;;;;;;;;3.30;99.90;;;;;;5128108;27;19912;-69
2022/01/22 01:04:29;;;;;;;;;;;3.30;99.90;;;;;;5131873;27;19918;-72
2022/01/22 01:06:55;;;;;;;;;;;3.40;99.90;;;;;;5128819;27;19916;-71
2022/01/22 01:09:20;;;;;;;;;;;3.30;99.90;;;;;;5128406;27;19923;-70
2022/01/22 01:11:53;;;;;;;;;;;3.40;99.90;;;;;;5125244;27;19926;-70
2022/01/22 01:14:30;;;;;;;;;;;3.40;99.90;;;;;;5129359;27;19962;-70
2022/01/22 01:33:27;;;;;;;;;;;3.50;99.90;;;;;;5123499;27;19940;-70
2022/01/22 01:35:52;;;;;;;;;;;3.50;99.90;;;;;;5128911;27;19912;-70
2022/01/22 01:38:21;;;;;;;;;;;3.40;99.90;;;;;;5118995;27;20358;-71
2022/01/22 01:40:55;;;;;;;;;;;3.40;99.90;;;;;;5120270;27;20457;-71
2022/01/22 01:43:26;;;;;;;;;;;3.50;99.90;;;;;;5131578;27;19929;-71
2022/01/22 01:45:52;;;;;;;;;;;3.50;99.90;;;;;;5122556;27;20387;-71
2022/01/22 01:48:23;;;;;;;;;;;3.40;99.90;;;;;;5125562;27;19911;-71
2022/01/22 01:50:48;;;;;;;;;;;3.40;99.90;;;;;;5128196;27;20054;-70
2022/01/22 01:53:50;;;;;;;;;;;3.50;99.90;;;;;;5123018;27;19998;-70
2022/01/22 01:57:24;;;;;;;;;;;3.50;99.90;;;;;;5125747;27;20031;-70
2022/01/22 01:58:48;;;;;;;;;;;3.40;99.90;;;;;;5127082;27;19990;-71
2022/01/22 02:01:14;;;;;;;;;;;3.30;99.90;;;;;;5130838;27;20393;-71
2022/01/22 02:03:39;;;;;;;;;;;3.40;99.90;;;;;;5126043;27;19998;-70
2022/01/22 02:06:05;;;;;;;;;;;3.40;99.90;;;;;;5129931;27;20015;-70
2022/01/22 02:08:31;;;;;;;;;;;3.60;99.90;;;;;;5126359;27;19923;-71
2022/01/22 02:11:00;;;;;;;;;;;3.60;99.90;;;;;;5129915;27;19945;-70
2022/01/22 02:24:54;;;;;;;;;;;3.70;99.90;;;;;;5116280;27;19918;-70
2022/01/22 02:27:20;;;;;;;;;;;3.60;99.90;;;;;;5124721;27;19912;-71
2022/01/22 02:29:49;;;;;;;;;;;3.60;99.90;;;;;;5130391;27;19914;-71
2022/01/22 02:36:12;;;;;;;;;;;3.70;99.90;;;;;;5108364;27;20376;-71
2022/01/22 02:38:11;;;;;;;;;;;3.60;99.90;;;;;;5110860;27;20429;-72
2022/01/22 02:40:48;;;;;;;;;;;3.50;99.90;;;;;;5115019;27;19930;-72
2022/01/22 02:43:18;;;;;;;;;;;3.60;99.90;;;;;;5112907;27;19912;-71
2022/01/22 02:45:48;;;;;;;;;;;3.70;99.90;;;;;;5116311;27;19912;-71
2022/01/22 02:48:14;;;;;;;;;;;3.70;99.90;;;;;;5115657;27;19915;-70
2022/01/22 02:50:43;;;;;;;;;;;3.50;99.90;;;;;;5116537;27;20018;-71
2022/01/22 02:53:13;;;;;;;;;;;3.50;99.90;;;;;;5118768;27;20308;-71
2022/01/22 02:55:42;;;;;;;;;;;3.50;99.90;;;;;;5114217;27;20393;-71
2022/01/22 02:58:17;;;;;;;;;;;3.50;99.90;;;;;;5117081;27;20293;-70
2022/01/22 03:00:43;;;;;;;;;;;3.50;99.90;;;;;;5116277;27;20329;-70
2022/01/22 03:03:09;;;;;;;;;;;3.60;99.90;;;;;;5114943;27;20330;-71
2022/01/22 03:05:35;;;;;;;;;;;3.60;99.90;;;;;;5121610;27;19973;-72
2022/01/22 03:08:05;;;;;;;;;;;3.70;99.90;;;;;;5117741;27;19911;-71
2022/01/22 03:10:31;;;;;;;;;;;3.80;99.90;;;;;;5118867;27;20028;-72
2022/01/22 03:18:05;;;;;;;;;;;3.90;99.90;;;;;;5118221;27;20279;-70
2022/01/22 03:31:41;;;;;;;;;;;4.20;99.90;;;;;;5111278;27;20465;-71
2022/01/22 03:34:09;;;;;;;;;;;4.20;99.90;;;;;;5122327;27;20392;-71
2022/01/22 03:36:35;;;;;;;;;;;4.10;99.90;;;;;;5125584;27;19920;-69
2022/01/22 03:39:05;;;;;;;;;;;4.20;99.90;;;;;;5127067;27;19918;-71
2022/01/22 03:41:31;;;;;;;;;;;4.20;99.90;;;;;;5114348;27;19915;-70
2022/01/22 03:43:57;;;;;;;;;;;4.10;99.90;;;;;;5128119;27;19918;-70
2022/01/22 03:46:22;;;;;;;;;;;4.00;99.90;;;;;;5129394;27;19911;-71
2022/01/22 03:48:48;;;;;;;;;;;3.90;99.90;;;;;;5126492;27;19923;-71
2022/01/22 03:51:14;;;;;;;;;;;4.00;99.90;;;;;;5123896;27;19964;-71
2022/01/22 03:53:40;;;;;;;;;;;3.80;99.90;;;;;;5129176;27;20243;-71
2022/01/22 03:56:07;;;;;;;;;;;3.80;99.90;;;;;;5125299;27;19918;-70
2022/01/22 03:58:34;;;;;;;;;;;3.80;99.90;;;;;;5120923;27;19934;-70
2022/01/22 04:08:51;;;;;;;;;;;3.80;99.90;;;;;;5128597;27;19957;-70
2022/01/22 04:11:17;;;;;;;;;;;3.80;99.90;;;;;;5129489;27;19969;-71
2022/01/22 04:13:45;;;;;;;;;;;3.80;99.90;;;;;;5131919;27;19939;-71
2022/01/22 04:16:13;;;;;;;;;;;3.80;99.90;;;;;;5129979;27;19990;-70
2022/01/22 04:27:06;;;;;;;;;;;3.90;99.90;;;;;;5125530;27;19926;-69
2022/01/22 04:29:32;;;;;;;;;;;3.90;99.90;;;;;;5120384;27;19915;-71
2022/01/22 04:31:57;;;;;;;;;;;3.80;99.90;;;;;;5131417;27;19938;-71
2022/01/22 04:34:23;;;;;;;;;;;3.70;99.90;;;;;;5132627;27;19945;-71
2022/01/22 04:36:48;;;;;;;;;;;3.70;99.90;;;;;;5129510;27;19916;-71
2022/01/22 04:39:14;;;;;;;;;;;3.50;99.90;;;;;;5133429;27;19918;-71
2022/01/22 04:41:39;;;;;;;;;;;3.50;99.90;;;;;;5126211;27;20578;-70
2022/01/22 04:44:06;;;;;;;;;;;3.50;99.90;;;;;;5127902;27;20380;-71
2022/01/22 04:46:58;;;;;;;;;;;3.50;99.90;;;;;;5126306;27;19916;-71
2022/01/22 04:57:17;;;;;;;;;;;3.60;99.90;;;;;;5126924;27;19962;-70
2022/01/22 04:59:43;;;;;;;;;;;3.60;99.90;;;;;;5127061;27;20341;-71
2022/01/22 05:02:09;;;;;;;;;;;3.60;99.90;;;;;;5128594;27;20401;-71
2022/01/22 05:04:34;;;;;;;;;;;3.50;99.90;;;;;;5126945;27;19912;-72
2022/01/22 05:07:00;;;;;;;;;;;3.50;99.90;;;;;;5122791;27;19972;-70
2022/01/22 05:09:26;;;;;;;;;;;3.50;99.90;;;;;;5129141;28;19919;-71
2022/01/22 05:11:51;;;;;;;;;;;3.40;99.90;;;;;;5123777;27;19969;-70
2022/01/22 05:14:17;;;;;;;;;;;3.40;99.90;;;;;;5129897;27;19911;-70
2022/01/22 05:16:43;;;;;;;;;;;3.50;99.90;;;;;;5124338;28;19912;-71
2022/01/22 05:19:11;;;;;;;;;;;3.50;99.90;;;;;;5128591;28;19915;-72
2022/01/22 05:21:39;;;;;;;;;;;3.40;99.90;;;;;;5128134;27;19988;-70
2022/01/22 05:24:09;;;;;;;;;;;3.30;99.90;;;;;;5128910;28;19916;-70
2022/01/22 05:39:25;;;;;;;;;;;3.30;99.90;;;;;;5129660;28;19963;-70
2022/01/22 05:41:50;;;;;;;;;;;3.30;99.90;;;;;;5127510;27;19923;-70
2022/01/22 05:44:16;;;;;;;;;;;3.30;99.90;;;;;;5130057;27;19911;-70
2022/01/22 05:46:42;;;;;;;;;;;3.40;99.90;;;;;;5123784;28;19919;-70
2022/01/22 05:49:07;;;;;;;;;;;3.40;99.90;;;;;;5122708;27;20003;-70
2022/01/22 05:51:35;;;;;;;;;;;3.30;99.90;;;;;;5120168;27;19978;-69
2022/01/22 05:59:36;;;;;;;;;;;3.30;99.90;;;;;;5127707;27;19983;-70
2022/01/22 06:02:02;;;;;;;;;;;3.20;99.90;;;;;;5119690;28;20068;-69
2022/01/22 06:04:27;;;;;;;;;;;3.20;99.90;;;;;;5062079;27;1921740;-71
2022/01/22 06:06:53;;;;;;;;;;;3.20;99.90;;;;;;5125090;27;19927;-70
2022/01/22 06:09:19;;;;;;;;;;;3.20;99.90;;;;;;5127190;27;19938;-71
2022/01/22 06:12:03;;;;;;;;;;;3.20;99.90;;;;;;5129935;27;19954;-70
2022/01/22 06:14:30;;;;;;;;;;;3.20;99.90;;;;;;5122044;27;19953;-71
2022/01/22 06:16:55;;;;;;;;;;;3.20;99.90;;;;;;5122356;27;20444;-71
2022/01/22 06:19:21;;;;;;;;;;;3.20;99.90;;;;;;5122056;27;20002;-70
2022/01/22 06:21:46;;;;;;;;;;;3.10;99.90;;;;;;5132605;27;19920;-70
2022/01/22 06:24:12;;;;;;;;;;;3.10;99.90;;;;;;5129867;27;20888;-71
2022/01/22 06:26:38;;;;;;;;;;;3.20;99.90;;;;;;5128315;27;19962;-70
2022/01/22 06:29:04;;;;;;;;;;;3.10;99.90;;;;;;5130348;27;20357;-71
2022/01/22 06:31:30;;;;;;;;;;;3.10;99.90;;;;;;5133829;27;19947;-72
2022/01/22 06:33:57;;;;;;;;;;;3.10;99.90;;;;;;5130931;27;19907;-71
2022/01/22 06:36:22;;;;;;;;;;;3.10;99.90;;;;;;5129004;27;19951;-70
2022/01/22 06:38:50;;;;;;;;;;;3.10;99.90;;;;;;5126141;27;20435;-70
2022/01/22 06:44:00;;;;;;;;;;;3.00;99.90;;;;;;5130059;27;19920;-71
2022/01/22 06:46:25;;;;;;;;;;;3.00;99.90;;;;;;5124391;27;19915;-71
2022/01/22 06:48:51;;;;;;;;;;;3.00;99.90;;;;;;5120232;27;19917;-70
2022/01/22 06:51:21;;;;;;;;;;;3.00;99.90;;;;;;5124882;27;19953;-71
2022/01/22 06:53:48;;;;;;;;;;;3.00;99.90;;;;;;5124666;27;19934;-70
2022/01/22 06:56:19;;;;;;;;;;;3.00;99.90;;;;;;5131190;27;19960;-70
2022/01/22 06:58:45;;;;;;;;;;;2.90;99.90;;;;;;5132093;27;19915;-70
2022/01/22 07:01:10;;;;;;;;;;;2.90;99.90;;;;;;5125255;27;19911;-71
2022/01/22 07:03:36;;;;;;;;;;;2.90;99.90;;;;;;5129286;27;19918;-70
2022/01/22 07:06:02;;;;;;;;;;;2.80;99.90;;;;;;5123288;27;19930;-71
2022/01/22 07:08:28;;;;;;;;;;;2.70;99.90;;;;;;5124378;27;20280;-70
2022/01/22 07:10:54;;;;;;;;;;;2.70;99.90;;;;;;5129201;27;19916;-70
2022/01/22 07:13:19;;;;;;;;;;;2.80;99.90;;;;;;5124945;27;19922;-70
2022/01/22 07:15:45;;;;;;;;;;;2.80;99.90;;;;;;5130250;27;19912;-72
2022/01/22 07:18:13;;;;;;;;;;;2.80;99.90;;;;;;5128673;27;20342;-71
2022/01/22 07:20:40;;;;;;;;;;;2.80;99.90;;;;;;5133704;27;19912;-71
2022/01/22 07:25:50;;;;;;;;;;;2.90;99.90;;;;;;5130912;27;19957;-71
2022/01/22 07:28:16;;;;;;;;;;;2.90;99.90;;;;;;5127576;27;19919;-65
2022/01/22 07:30:42;;;;;;;;;;;2.90;99.90;;;;;;5131595;27;19946;-65
2022/01/22 07:33:07;;;;;;;;;;;3.00;99.90;;;;;;5130158;27;19961;-65
2022/01/22 07:35:36;;;;;;;;;;;3.10;99.90;;;;;;5128054;27;19920;-67
2022/01/22 07:38:02;;;;;;;;;;;3.10;99.90;;;;;;5130569;27;19907;-67
2022/01/22 07:40:28;;;;;;;;;;;3.10;99.90;;;;;;5128554;27;19918;-67
2022/01/22 07:42:54;;;;;;;;;;;3.10;99.90;;;;;;5119420;27;19936;-67
2022/01/22 07:45:20;;;;;;;;;;;3.20;99.90;;;;;;5130920;27;19922;-65
2022/01/22 07:47:45;;;;;;;;;;;3.20;99.90;;;;;;5132134;27;19908;-64
2022/01/22 07:50:11;;;;;;;;;;;3.40;99.90;;;;;;5129118;27;19960;-68
2022/01/22 07:52:37;;;;;;;;;;;3.50;99.90;;;;;;5123707;27;19916;-67
2022/01/22 07:55:03;;;;;;;;;;;3.60;99.90;;;;;;5126963;27;20052;-66
2022/01/22 07:57:30;;;;;;;;;;;3.80;99.90;;;;;;5115575;28;20017;-66
2022/01/22 07:59:55;;;;;;;;;;;3.80;99.90;;;;;;5131729;27;19912;-66
2022/01/22 08:02:21;;;;;;;;;;;3.90;99.90;;;;;;5126516;27;19964;-66
2022/01/22 08:04:47;;;;;;;;;;;4.00;99.90;;;;;;5123318;27;19969;-66
2022/01/22 08:07:13;;;;;;;;;;;4.10;99.90;;;;;;5122527;27;20369;-65
2022/01/22 08:09:39;;;;;;;;;;;4.10;99.90;;;;;;5124557;28;19918;-64
2022/01/22 08:12:05;;;;;;;;;;;4.20;99.90;;;;;;5119219;27;19942;-65
2022/01/22 08:14:40;;;;;;;;;;;4.40;99.90;;;;;;5117622;28;19916;-65
2022/01/22 08:17:08;;;;;;;;;;;4.50;99.90;;;;;;5140512;27;19946;-66
2022/01/22 08:19:34;;;;;;;;;;;4.60;99.90;;;;;;5123753;28;19935;-66
2022/01/22 08:22:00;;;;;;;;;;;4.80;99.90;;;;;;5131585;27;20337;-65
2022/01/22 08:24:30;;;;;;;;;;;5.10;99.90;;;;;;5123202;28;20350;-65
2022/01/22 08:27:31;;;;;;;;;;;5.20;99.90;;;;;;5123604;28;20408;-65
2022/01/22 08:29:57;;;;;;;;;;;5.50;99.90;;;;;;5125395;28;20242;-66
2022/01/22 08:37:36;;;;;;;;;;;5.70;99.90;;;;;;5130221;28;19954;-66
2022/01/22 08:40:03;;;;;;;;;;;5.70;99.90;;;;;;5130708;27;19955;-68
2022/01/22 08:42:28;;;;;;;;;;;5.80;99.90;;;;;;5127760;28;19915;-68
2022/01/22 08:44:54;;;;;;;;;;;5.80;99.90;;;;;;5115083;28;19998;-68
2022/01/22 08:47:21;;;;;;;;;;;5.90;99.90;;;;;;5123167;28;19958;-67
2022/01/22 08:49:46;;;;;;;;;;;6.00;99.90;;;;;;5129589;27;19919;-68
2022/01/22 08:52:18;;;;;;;;;;;6.10;99.90;;;;;;5130076;27;20350;-68
2022/01/22 08:54:47;;;;;;;;;;;6.20;99.90;;;;;;5131534;27;20346;-67
2022/01/22 08:57:12;;;;;;;;;;;6.20;99.90;;;;;;5124443;27;19916;-67
2022/01/22 08:59:38;;;;;;;;;;;6.20;99.90;;;;;;5130686;27;19919;-68
2022/01/22 09:02:04;;;;;;;;;;;6.20;99.90;;;;;;5129963;27;20013;-67
2022/01/22 09:04:31;;;;;;;;;;;6.40;99.90;;;;;;5133450;27;20403;-69
2022/01/22 09:06:57;;;;;;;;;;;6.30;99.90;;;;;;5134679;27;19936;-69
2022/01/22 09:09:23;;;;;;;;;;;6.20;99.90;;;;;;5137310;27;19998;-67
2022/01/22 09:11:49;;;;;;;;;;;6.20;99.90;;;;;;5133704;27;20452;-67
2022/01/22 09:14:16;;;;;;;;;;;6.20;99.90;;;;;;5132935;27;20021;-67
2022/01/22 09:16:42;;;;;;;;;;;6.20;99.90;;;;;;5130499;27;19990;-68
2022/01/22 09:19:10;;;;;;;;;;;6.30;99.90;;;;;;5132242;27;19954;-67
2022/01/22 09:21:38;;;;;;;;;;;6.40;99.90;;;;;;5132819;27;19950;-69
2022/01/22 09:24:04;;;;;;;;;;;6.50;99.90;;;;;;5134984;27;19911;-69
2022/01/22 09:26:30;;;;;;;;;;;6.50;99.90;;;;;;5128251;27;19911;-69
2022/01/22 09:28:58;;;;;;;;;;;6.50;99.90;;;;;;5134039;27;19915;-67
2022/01/22 09:31:24;;;;;;;;;;;6.60;99.90;;;;;;5133964;27;19947;-67
2022/01/22 09:33:50;;;;;;;;;;;6.60;99.90;;;;;;5131483;27;19965;-67
2022/01/22 09:36:15;;;;;;;;;;;6.60;99.90;;;;;;5131992;27;20304;-66
2022/01/22 09:38:53;;;;;;;;;;;6.70;99.90;;;;;;5126660;27;19911;-66
2022/01/22 09:41:29;;;;;;;;;;;6.80;99.90;;;;;;5128716;27;19946;-67
2022/01/22 09:43:56;;;;;;;;;;;6.80;99.90;;;;;;5127442;27;19913;-69
2022/01/22 09:46:22;;;;;;;;;;;6.90;99.90;;;;;;5111471;27;19919;-67
2022/01/22 09:48:49;;;;;;;;;;;6.90;99.90;;;;;;5129024;27;19919;-70
2022/01/22 09:51:14;;;;;;;;;;;7.00;99.90;;;;;;5130758;27;19964;-67
2022/01/22 09:53:40;;;;;;;;;;;6.90;99.90;;;;;;5129762;27;19915;-70
2022/01/22 09:56:06;;;;;;;;;;;6.90;99.90;;;;;;5132079;27;19911;-67
2022/01/22 09:58:32;;;;;;;;;;;6.90;99.90;;;;;;5127898;27;19926;-68
2022/01/22 10:01:36;;;;;;;;;;;6.90;99.90;;;;;;5129981;27;20286;-67
2022/01/22 10:04:07;;;;;;;;;;;7.00;99.90;;;;;;5082108;28;20317;-68
2022/01/22 10:06:33;;;;;;;;;;;7.20;99.90;;;;;;5077578;28;19959;-67
2022/01/22 10:09:12;;;;;;;;;;;7.30;99.90;;;;;;5100744;27;20391;-69
2022/01/22 10:11:37;;;;;;;;;;;7.30;99.90;;;;;;5124565;27;19934;-67
2022/01/22 10:14:03;;;;;;;;;;;7.40;99.90;;;;;;5124991;27;20362;-69
2022/01/22 10:16:32;;;;;;;;;;;7.40;99.90;;;;;;5129973;27;19915;-68
2022/01/22 10:19:08;;;;;;;;;;;7.40;99.90;;;;;;5128034;27;19927;-68
2022/01/22 10:21:34;;;;;;;;;;;7.40;99.90;;;;;;5131897;27;19914;-69
2022/01/22 10:24:18;;;;;;;;;;;7.50;99.90;;;;;;5114793;27;19915;-68
2022/01/22 10:26:44;;;;;;;;;;;7.50;99.90;;;;;;5126079;27;20491;-67
2022/01/22 10:29:09;;;;;;;;;;;7.50;99.90;;;;;;5132251;27;20421;-69
2022/01/22 10:31:42;;;;;;;;;;;7.50;99.90;;;;;;5133131;27;19914;-68
2022/01/22 10:34:09;;;;;;;;;;;7.50;99.90;;;;;;5132954;27;20009;-68
2022/01/22 10:36:35;;;;;;;;;;;7.70;99.90;;;;;;5129353;27;19918;-68
2022/01/22 10:39:01;;;;;;;;;;;7.80;99.90;;;;;;5127945;27;20541;-67
2022/01/22 10:41:32;;;;;;;;;;;7.80;99.90;;;;;;5128900;27;20337;-71
2022/01/22 10:43:59;;;;;;;;;;;7.80;99.90;;;;;;5129106;27;20795;-69
2022/01/22 10:49:22;;;;;;;;;;;7.90;99.90;;;;;;5130117;27;20284;-68
2022/01/22 10:51:48;;;;;;;;;;;8.00;99.90;;;;;;5122429;27;19916;-69
2022/01/22 10:54:14;;;;;;;;;;;8.10;99.90;;;;;;5124782;27;20048;-66
2022/01/22 10:56:41;;;;;;;;;;;8.10;99.90;;;;;;5122977;27;20421;-66
2022/01/22 10:59:09;;;;;;;;;;;8.20;99.90;;;;;;5121914;27;19916;-69
2022/01/22 11:01:46;;;;;;;;;;;8.20;99.90;;;;;;5122588;27;19998;-72
2022/01/22 11:04:13;;;;;;;;;;;8.30;99.90;;;;;;5127330;27;19915;-69
2022/01/22 11:06:40;;;;;;;;;;;8.40;99.90;;;;;;5125878;27;20010;-70
2022/01/22 11:09:07;;;;;;;;;;;8.40;99.90;;;;;;5123768;27;19918;-68
2022/01/22 11:11:37;;;;;;;;;;;8.40;99.90;;;;;;5124921;27;19972;-67
2022/01/22 11:14:03;;;;;;;;;;;8.40;99.90;;;;;;5127242;27;20379;-67
2022/01/22 11:16:29;;;;;;;;;;;8.50;99.90;;;;;;5124647;27;20331;-69
2022/01/22 11:18:55;;;;;;;;;;;8.60;99.90;;;;;;5120847;27;19915;-68
2022/01/22 11:21:22;;;;;;;;;;;8.70;99.90;;;;;;5119454;27;19920;-68
2022/01/22 11:23:48;;;;;;;;;;;8.60;99.90;;;;;;5122951;27;19936;-70
2022/01/22 11:26:14;;;;;;;;;;;8.60;99.90;;;;;;5130179;27;19976;-69
2022/01/22 11:28:42;;;;;;;;;;;8.60;99.90;;;;;;5124386;27;19964;-68
2022/01/22 11:31:15;;;;;;;;;;;8.70;99.90;;;;;;5128493;27;20377;-67
2022/01/22 11:33:42;;;;;;;;;;;8.70;99.90;;;;;;5128100;27;19923;-67
2022/01/22 11:36:24;;;;;;;;;;;8.60;99.90;;;;;;5126668;27;19922;-70
2022/01/22 11:38:53;;;;;;;;;;;8.60;99.90;;;;;;5127545;27;20015;-68
2022/01/22 11:41:21;;;;;;;;;;;8.60;99.90;;;;;;5129924;27;19935;-68
2022/01/22 11:43:50;;;;;;;;;;;8.70;99.90;;;;;;5126724;27;20289;-69
2022/01/22 11:46:20;;;;;;;;;;;8.70;99.90;;;;;;5131364;27;19948;-67
2022/01/22 11:49:05;;;;;;;;;;;8.80;99.90;;;;;;5126412;27;19911;-69
2022/01/22 11:51:31;;;;;;;;;;;8.80;99.90;;;;;;5124245;27;20364;-70
2022/01/22 11:53:58;;;;;;;;;;;8.80;99.90;;;;;;5127688;27;19918;-68
2022/01/22 11:56:27;;;;;;;;;;;8.80;99.90;;;;;;5125991;27;19975;-67
2022/01/22 11:58:56;;;;;;;;;;;8.70;99.90;;;;;;5129323;28;19916;-67
2022/01/22 12:01:37;;;;;;;;;;;8.80;99.90;;;;;;5127394;27;19911;-68
2022/01/22 12:04:03;;;;;;;;;;;8.80;99.90;;;;;;5123643;28;19950;-69
2022/01/22 12:06:29;;;;;;;;;;;8.80;99.90;;;;;;5121949;28;19938;-69
2022/01/22 12:09:15;;;;;;;;;;;8.80;99.90;;;;;;5128518;27;20647;-68
2022/01/22 12:14:45;;;;;;;;;;;9.00;99.90;;;;;;5127079;27;19922;-68
2022/01/22 12:17:17;;;;;;;;;;;8.90;99.90;;;;;;5125792;28;20375;-69
2022/01/22 12:22:47;;;;;;;;;;;8.90;99.90;;;;;;5130353;27;19947;-69
2022/01/22 12:25:16;;;;;;;;;;;8.80;99.90;;;;;;5126850;27;19911;-70
2022/01/22 12:27:44;;;;;;;;;;;8.70;99.90;;;;;;5120479;27;19912;-71
2022/01/22 12:30:10;;;;;;;;;;;8.60;99.90;;;;;;5129205;27;19955;-66
2022/01/22 12:32:44;;;;;;;;;;;8.50;99.90;;;;;;5132820;27;20329;-69
2022/01/22 12:35:12;;;;;;;;;;;8.60;99.90;;;;;;5130904;27;19922;-68
2022/01/22 12:37:41;;;;;;;;;;;8.50;99.90;;;;;;5133287;27;19911;-68
2022/01/22 12:40:07;;;;;;;;;;;8.40;99.90;;;;;;5128314;27;19954;-67
2022/01/22 12:42:52;;;;;;;;;;;8.30;99.90;;;;;;5134713;27;19919;-68
2022/01/22 12:45:18;;;;;;;;;;;8.20;99.90;;;;;;5131721;27;19912;-69
2022/01/22 12:47:48;;;;;;;;;;;7.90;99.90;;;;;;5127372;27;20282;-71
2022/01/22 12:50:13;;;;;;;;;;;7.70;99.90;;;;;;5132759;27;19912;-66
2022/01/22 12:52:41;;;;;;;;;;;7.60;99.90;;;;;;5125811;27;20425;-67
2022/01/22 12:55:23;;;;;;;;;;;7.50;99.90;;;;;;5126518;27;20373;-66
2022/01/22 12:57:49;;;;;;;;;;;7.30;99.90;;;;;;5128053;27;19915;-68
2022/01/22 13:00:15;;;;;;;;;;;7.20;99.90;;;;;;5131994;27;20277;-66
2022/01/22 13:02:45;;;;;;;;;;;7.10;99.90;;;;;;5129235;27;20945;-68
2022/01/22 13:05:13;;;;;;;;;;;7.10;99.90;;;;;;5133197;27;19915;-68
2022/01/22 13:07:39;;;;;;;;;;;7.10;99.90;;;;;;5130430;27;19915;-67
2022/01/22 13:10:07;;;;;;;;;;;7.00;99.90;;;;;;5132984;27;20394;-69
2022/01/22 13:12:36;;;;;;;;;;;7.00;99.90;;;;;;5121921;27;19935;-67
2022/01/22 13:15:03;;;;;;;;;;;7.10;99.90;;;;;;5121217;27;19912;-68
2022/01/22 13:17:30;;;;;;;;;;;7.00;99.90;;;;;;5126046;27;19938;-69
2022/01/22 13:19:56;;;;;;;;;;;7.00;99.90;;;;;;5130149;27;20396;-67
2022/01/22 13:22:36;;;;;;;;;;;7.00;99.90;;;;;;5127095;27;19911;-68
2022/01/22 13:25:02;;;;;;;;;;;7.00;99.90;;;;;;5127703;27;20372;-68
2022/01/22 13:27:31;;;;;;;;;;;7.00;99.90;;;;;;5128594;27;19916;-68
2022/01/22 13:29:56;;;;;;;;;;;7.10;99.90;;;;;;5128314;27;19916;-68
2022/01/22 13:32:42;;;;;;;;;;;7.20;99.90;;;;;;5126668;27;19916;-69
2022/01/22 13:35:25;;;;;;;;;;;7.10;99.90;;;;;;5127922;27;20376;-68
2022/01/22 13:41:03;;;;;;;;;;;7.10;99.90;;;;;;5125945;27;20000;-70
2022/01/22 13:49:27;;;;;;;;;;;7.10;99.90;;;;;;5123372;27;19979;-68
2022/01/22 13:51:58;;;;;;;;;;;7.00;99.90;;;;;;5129870;27;20025;-68
2022/01/22 13:54:31;;;;;;;;;;;7.00;99.90;;;;;;5125690;27;19931;-66
2022/01/22 13:56:59;;;;;;;;;;;6.90;99.90;;;;;;5133244;27;20380;-67
2022/01/22 13:59:30;;;;;;;;;;;6.80;99.90;;;;;;5128411;27;19955;-68
2022/01/22 14:03:07;;;;;;;;;;;6.90;99.90;;;;;;5131265;27;19938;-70
2022/01/22 14:04:59;;;;;;;;;;;6.90;99.90;;;;;;5121218;27;19919;-68
2022/01/22 14:07:38;;;;;;;;;;;7.00;99.90;;;;;;5129409;27;20338;-68
2022/01/22 14:10:03;;;;;;;;;;;7.00;99.90;;;;;;5127143;27;20387;-69
2022/01/22 14:12:35;;;;;;;;;;;7.10;99.90;;;;;;5127312;27;19919;-68
2022/01/22 14:15:03;;;;;;;;;;;7.00;99.90;;;;;;5126337;27;19911;-68
2022/01/22 14:17:37;;;;;;;;;;;6.90;99.90;;;;;;5126742;27;19963;-69
2022/01/22 14:20:05;;;;;;;;;;;6.90;99.90;;;;;;5124193;27;19919;-70
2022/01/22 14:22:50;;;;;;;;;;;6.90;99.90;;;;;;5121509;27;19922;-67
2022/01/22 14:25:16;;;;;;;;;;;7.00;99.90;;;;;;5130765;27;19912;-68
2022/01/22 14:27:41;;;;;;;;;;;7.00;99.90;;;;;;5123653;27;19967;-68
2022/01/22 14:30:07;;;;;;;;;;;7.00;99.90;;;;;;5125963;27;20270;-69
2022/01/22 14:32:32;;;;;;;;;;;7.00;99.90;;;;;;5126291;27;19915;-67
2022/01/22 14:34:59;;;;;;;;;;;7.00;99.90;;;;;;5126490;27;19911;-68
2022/01/22 14:37:30;;;;;;;;;;;7.00;99.90;;;;;;5124284;27;19911;-67
2022/01/22 14:45:30;;;;;;;;;;;6.90;99.90;;;;;;5129000;27;19963;-71
2022/01/22 14:47:58;;;;;;;;;;;6.90;99.90;;;;;;5120037;27;19915;-68
2022/01/22 14:50:24;;;;;;;;;;;6.90;99.90;;;;;;5123437;27;19916;-67
2022/01/22 14:52:56;;;;;;;;;;;6.90;99.90;;;;;;5123617;27;19991;-68
2022/01/22 14:55:22;;;;;;;;;;;6.90;99.90;;;;;;5127471;27;20404;-67
2022/01/22 14:57:48;;;;;;;;;;;6.90;99.90;;;;;;5127136;27;19912;-68
2022/01/22 15:00:15;;;;;;;;;;;6.90;99.90;;;;;;5127596;27;20377;-67
2022/01/22 15:02:42;;;;;;;;;;;6.90;99.90;;;;;;5128697;27;19911;-68
2022/01/22 15:05:09;;;;;;;;;;;6.80;99.90;;;;;;5127617;27;19919;-68
2022/01/22 15:07:35;;;;;;;;;;;6.90;99.90;;;;;;5129288;27;19998;-68
2022/01/22 15:10:02;;;;;;;;;;;6.90;99.90;;;;;;5124207;27;19962;-69
2022/01/22 15:12:28;;;;;;;;;;;6.90;99.90;;;;;;5128166;27;20246;-68
2022/01/22 15:14:54;;;;;;;;;;;6.80;99.90;;;;;;5127212;27;19927;-70
2022/01/22 15:19:46;;;;;;;;;;;6.70;99.90;;;;;;5128921;27;19934;-68
2022/01/22 15:22:12;;;;;;;;;;;6.60;99.90;;;;;;5125922;27;20275;-70
2022/01/22 15:24:38;;;;;;;;;;;6.60;99.90;;;;;;5124850;27;19964;-69
2022/01/22 15:27:05;;;;;;;;;;;6.40;99.90;;;;;;5121732;27;20488;-69
2022/01/22 15:29:31;;;;;;;;;;;6.30;99.90;;;;;;5131696;27;19951;-66
2022/01/22 15:36:56;;;;;;;;;;;6.30;99.90;;;;;;5128712;27;20545;-70
2022/01/22 15:39:21;;;;;;;;;;;6.20;99.90;;;;;;5134332;27;20369;-70
2022/01/22 15:41:47;;;;;;;;;;;6.20;99.90;;;;;;5122024;27;19919;-69
2022/01/22 15:44:13;;;;;;;;;;;6.20;99.90;;;;;;5126618;27;19994;-67
2022/01/22 15:46:41;;;;;;;;;;;6.20;99.90;;;;;;5122195;27;20337;-69
2022/01/22 15:49:12;;;;;;;;;;;6.10;99.90;;;;;;5126714;27;20457;-68
2022/01/22 15:51:38;;;;;;;;;;;6.10;99.90;;;;;;5129372;27;19911;-69
2022/01/22 15:54:04;;;;;;;;;;;6.10;99.90;;;;;;5128783;27;20384;-69
2022/01/22 15:56:29;;;;;;;;;;;6.10;99.90;;;;;;5120269;27;20348;-69
2022/01/22 15:58:55;;;;;;;;;;;6.10;99.90;;;;;;5124833;28;19926;-68
2022/01/22 16:01:20;;;;;;;;;;;6.00;99.90;;;;;;5124148;28;19938;-68
2022/01/22 16:03:54;;;;;;;;;;;6.00;99.90;;;;;;5128358;27;19998;-67
2022/01/22 16:06:22;;;;;;;;;;;6.00;99.90;;;;;;5129767;27;19922;-67
2022/01/22 16:08:48;;;;;;;;;;;5.90;99.90;;;;;;5129433;27;19911;-69
2022/01/22 16:11:14;;;;;;;;;;;5.90;99.90;;;;;;5129561;27;20017;-68
2022/01/22 16:13:41;;;;;;;;;;;5.80;99.90;;;;;;5126375;27;19915;-68
2022/01/22 16:16:08;;;;;;;;;;;5.90;99.90;;;;;;5126805;27;19915;-67
2022/01/22 16:18:33;;;;;;;;;;;5.80;99.90;;;;;;5128356;27;19912;-68
2022/01/22 16:20:59;;;;;;;;;;;5.80;99.90;;;;;;5126867;27;19916;-71
2022/01/22 16:23:25;;;;;;;;;;;5.70;99.90;;;;;;5127257;27;20006;-69
2022/01/22 16:25:50;;;;;;;;;;;5.70;99.90;;;;;;5128564;27;19995;-67
2022/01/22 16:28:16;;;;;;;;;;;5.70;99.90;;;;;;5133829;27;19917;-66
2022/01/22 16:30:42;;;;;;;;;;;5.70;99.90;;;;;;5132031;27;19972;-70
2022/01/22 16:33:07;;;;;;;;;;;5.70;99.90;;;;;;5131407;27;20357;-70
2022/01/22 16:35:33;;;;;;;;;;;5.60;99.90;;;;;;5135023;27;20291;-67
2022/01/22 16:37:58;;;;;;;;;;;5.60;99.90;;;;;;5128858;27;19922;-67
2022/01/22 16:40:25;;;;;;;;;;;5.70;99.90;;;;;;5132350;27;19923;-69
2022/01/22 16:43:04;;;;;;;;;;;5.60;99.90;;;;;;5123387;27;19915;-69
2022/01/22 16:56:04;;;;;;;;;;;5.50;99.90;;;;;;5131741;27;19911;-69
2022/01/22 16:58:34;;;;;;;;;;;5.60;99.90;;;;;;5122568;27;19922;-68
2022/01/22 17:01:01;;;;;;;;;;;5.50;99.90;;;;;;5127179;27;19927;-69